Time;durP1;ratioP1;P1;durP2;ratioP2;P2;SDS_P1;SDS_P2;PMS_P1;PMS_P2;Temp;Humidity;BMP_temperature;BMP_pressure;BME280_temperature;BME280_humidity;BME280_pressure;Samples;Min_cycle;Max_cycle;Signal;HPM_P1;HPM_P2
2023/01/05 00:02:05;;;;;;;33.17;5.85;;;;;;;11.25;74.59;101602.66;5023170;28;20030;-69
2023/01/05 00:04:31;;;;;;;32.05;5.65;;;;;;;11.25;74.79;101585.16;5021198;28;20037;-69
2023/01/05 00:06:56;;;;;;;27.63;4.93;;;;;;;11.20;74.58;101596.13;5022200;28;20128;-69
2023/01/05 00:09:21;;;;;;;29.67;6.03;;;;;;;11.26;74.98;101606.28;5031970;28;20111;-70
2023/01/05 00:22:53;;;;;;;33.95;6.20;;;;;;;11.25;74.45;101590.72;5029298;28;20119;-69
2023/01/05 00:25:22;;;;;;;28.40;5.50;;;;;;;11.24;73.88;101603.75;5030399;28;20077;-70
2023/01/05 00:27:50;;;;;;;26.30;5.53;;;;;;;11.25;74.31;101599.88;5011176;28;20503;-69
2023/01/05 00:30:18;;;;;;;28.65;5.78;;;;;;;11.26;74.25;101607.13;5015765;28;20108;-70
2023/01/05 00:32:44;;;;;;;24.83;5.32;;;;;;;11.25;74.10;101611.00;5022674;28;20493;-70
2023/01/05 00:35:11;;;;;;;30.60;5.10;;;;;;;11.26;73.86;101607.13;5011140;28;20080;-69
2023/01/05 00:37:37;;;;;;;24.13;4.80;;;;;;;11.29;73.91;101614.16;5028664;28;20029;-70
2023/01/05 00:40:07;;;;;;;23.83;5.43;;;;;;;11.29;73.77;101605.81;5017376;28;20030;-69
2023/01/05 00:42:33;;;;;;;30.02;5.45;;;;;;;11.30;73.79;101597.22;5010977;28;20021;-69
2023/01/05 00:44:58;;;;;;;23.63;4.88;;;;;;;11.29;73.45;101605.81;5016657;28;20378;-69
2023/01/05 00:47:24;;;;;;;29.85;5.32;;;;;;;11.28;73.72;101612.47;5023564;28;20111;-69
2023/01/05 00:49:49;;;;;;;24.00;4.80;;;;;;;11.26;73.42;101600.72;5022354;28;20120;-69
2023/01/05 00:52:14;;;;;;;28.10;5.75;;;;;;;11.23;73.34;101604.81;5027768;28;20061;-69
2023/01/05 00:54:40;;;;;;;24.17;5.18;;;;;;;11.25;73.82;101605.44;5030878;28;20040;-70
2023/01/05 00:57:06;;;;;;;23.23;4.55;;;;;;;11.26;73.58;101609.91;5027917;28;20029;-69
2023/01/05 00:59:31;;;;;;;26.67;5.03;;;;;;;11.26;73.37;101606.28;5030027;28;20030;-69
2023/01/05 01:01:57;;;;;;;29.17;5.85;;;;;;;11.23;73.56;101602.03;5030465;28;20033;-69
2023/01/05 01:04:22;;;;;;;25.25;5.18;;;;;;;11.24;73.55;101602.91;5029051;28;20045;-69
2023/01/05 01:06:48;;;;;;;33.08;5.78;;;;;;;11.22;73.29;101610.63;5014455;28;20064;-69
2023/01/05 01:09:13;;;;;;;30.95;5.25;;;;;;;11.22;73.35;101621.75;5029045;28;20030;-69
2023/01/05 01:11:39;;;;;;;27.73;5.20;;;;;;;11.18;73.19;101620.53;5011702;28;20090;-69
2023/01/05 01:14:09;;;;;;;28.20;5.28;;;;;;;11.20;73.55;101615.56;5011597;28;20111;-69
2023/01/05 01:16:34;;;;;;;26.35;5.28;;;;;;;11.18;73.43;101615.81;5012772;28;20426;-69
2023/01/05 01:19:00;;;;;;;21.77;4.97;;;;;;;11.17;73.42;101619.69;5028905;28;20662;-69
2023/01/05 01:21:26;;;;;;;30.67;5.93;;;;;;;11.14;73.15;101624.88;5025434;28;20037;-69
2023/01/05 01:23:51;;;;;;;26.00;6.00;;;;;;;11.12;73.77;101622.34;5028959;28;20108;-70
2023/01/05 01:26:17;;;;;;;25.88;5.18;;;;;;;11.11;73.59;101628.97;5029481;28;20100;-70
2023/01/05 01:28:45;;;;;;;25.67;5.32;;;;;;;11.06;73.50;101635.22;5013931;28;20378;-70
2023/01/05 01:31:10;;;;;;;29.00;5.60;;;;;;;11.05;73.80;101628.00;5025507;28;20139;-70
2023/01/05 01:33:38;;;;;;;28.75;5.35;;;;;;;11.05;73.65;101622.44;5018356;28;20128;-69
2023/01/05 01:36:04;;;;;;;22.77;5.15;;;;;;;11.03;73.84;101632.94;5015962;28;20040;-70
2023/01/05 01:38:29;;;;;;;32.70;5.80;;;;;;;11.01;73.95;101634.28;5022350;28;20444;-70
2023/01/05 01:40:55;;;;;;;30.85;5.25;;;;;;;11.00;73.67;101647.31;5026991;28;20026;-70
2023/01/05 01:43:39;;;;;;;27.23;5.22;;;;;;;11.02;74.27;101639.56;5027282;28;20026;-70
2023/01/05 01:46:05;;;;;;;26.92;5.38;;;;;;;10.95;73.84;101641.59;5016517;28;20116;-70
2023/01/05 01:48:32;;;;;;;31.65;6.03;;;;;;;10.93;74.16;101640.16;5028817;28;20041;-69
2023/01/05 01:51:01;;;;;;;22.58;4.70;;;;;;;10.90;74.07;101647.03;5027342;28;20069;-69
2023/01/05 01:53:31;;;;;;;30.35;5.57;;;;;;;10.91;74.17;101659.81;5033388;28;20059;-70
2023/01/05 01:56:00;;;;;;;28.70;5.68;;;;;;;10.94;74.23;101653.81;5030616;28;20116;-70
2023/01/05 01:58:28;;;;;;;32.30;5.82;;;;;;;10.96;74.25;101648.84;5019208;28;20029;-69
2023/01/05 02:00:54;;;;;;;27.85;5.32;;;;;;;10.96;74.55;101659.09;5023289;28;20033;-70
2023/01/05 02:03:19;;;;;;;34.45;5.88;;;;;;;10.96;74.29;101650.78;5023248;28;20547;-69
2023/01/05 02:05:44;;;;;;;29.58;5.18;;;;;;;10.96;74.33;101657.16;5024036;28;20119;-69
2023/01/05 02:08:12;;;;;;;32.50;6.30;;;;;;;10.94;74.42;101656.56;5032252;28;20064;-70
2023/01/05 02:10:43;;;;;;;28.50;5.30;;;;;;;10.93;74.20;101652.13;5032333;28;20041;-69
2023/01/05 02:13:37;;;;;;;32.28;6.00;;;;;;;10.96;74.60;101659.94;5032829;28;20033;-69
2023/01/05 02:16:35;;;;;;;29.25;5.38;;;;;;;11.02;74.79;101655.41;5025762;28;20034;-69
2023/01/05 02:19:21;;;;;;;31.95;5.68;;;;;;;10.99;74.83;101658.63;5024311;28;20037;-70
2023/01/05 02:22:15;;;;;;;30.27;5.72;;;;;;;11.01;74.70;101660.09;5026570;28;20045;-69
2023/01/05 02:25:12;;;;;;;25.35;5.50;;;;;;;11.03;74.89;101657.09;5013701;28;20026;-69
2023/01/05 02:28:03;;;;;;;29.92;6.32;;;;;;;10.99;74.75;101662.25;5032893;28;20033;-69
2023/01/05 02:30:43;;;;;;;29.85;5.65;;;;;;;10.97;74.84;101674.72;5031973;28;20485;-69
2023/01/05 02:33:26;;;;;;;30.60;5.60;;;;;;;10.95;74.58;101672.16;5028961;28;20045;-70
2023/01/05 02:36:23;;;;;;;24.17;5.50;;;;;;;10.97;74.96;101669.16;5013533;28;20030;-70
2023/01/05 02:38:57;;;;;;;27.58;6.47;;;;;;;10.98;74.53;101674.47;5027435;28;20044;-70
2023/01/05 02:41:29;;;;;;;26.02;5.45;;;;;;;11.00;74.69;101677.00;5021869;28;20029;-69
2023/01/05 02:43:56;;;;;;;34.60;5.18;;;;;;;11.00;74.63;101669.53;5030052;28;20065;-70
2023/01/05 02:46:21;;;;;;;27.05;5.28;;;;;;;11.00;74.75;101675.09;5033198;28;20087;-70
2023/01/05 02:48:50;;;;;;;30.25;5.88;;;;;;;11.02;74.80;101678.47;5027827;28;20465;-70
2023/01/05 02:51:22;;;;;;;31.92;5.22;;;;;;;11.04;74.71;101672.66;5030351;28;20108;-70
2023/01/05 02:53:57;;;;;;;29.48;6.18;;;;;;;10.98;74.28;101676.41;5029621;28;20041;-70
2023/01/05 02:56:35;;;;;;;33.95;6.10;;;;;;;11.00;74.90;101669.53;5032607;28;20033;-70
2023/01/05 02:59:21;;;;;;;31.25;6.28;;;;;;;11.02;74.93;101678.47;5032128;28;20029;-70
2023/01/05 03:01:58;;;;;;;28.85;5.38;;;;;;;11.01;74.96;101670.38;5031712;28;20032;-69
2023/01/05 03:04:38;;;;;;;31.88;5.85;;;;;;;11.04;74.97;101681.00;5032089;28;20071;-70
2023/01/05 03:07:08;;;;;;;28.25;5.75;;;;;;;11.03;74.23;101680.16;5030985;28;20025;-70
2023/01/05 03:09:37;;;;;;;29.90;5.43;;;;;;;11.04;74.71;101681.88;5027196;28;20030;-70
2023/01/05 03:15:19;;;;;;;32.50;6.03;;;;;;;11.07;74.86;101686.09;5012898;28;20053;-69
2023/01/05 03:17:48;;;;;;;27.83;5.65;;;;;;;11.03;74.45;101682.09;5029076;28;20017;-70
2023/01/05 03:20:17;;;;;;;30.85;5.30;;;;;;;11.04;74.60;101684.66;5018101;28;20167;-69
2023/01/05 03:37:20;;;;;;;26.35;5.40;;;;;;;11.09;74.50;101688.66;5028479;28;20109;-70
2023/01/05 03:39:46;;;;;;;27.05;5.70;;;;;;;11.00;74.24;101688.09;5015903;28;20461;-70
2023/01/05 03:42:13;;;;;;;25.70;5.63;;;;;;;11.04;74.65;101690.19;5028868;28;20032;-70
2023/01/05 03:44:42;;;;;;;32.83;5.13;;;;;;;11.04;74.19;101684.66;5029473;28;20797;-70
2023/01/05 03:47:07;;;;;;;27.67;5.18;;;;;;;11.04;74.27;101687.44;5030142;28;20017;-69
2023/01/05 03:49:32;;;;;;;27.38;5.00;;;;;;;11.05;74.44;101693.81;5031968;28;20030;-69
2023/01/05 03:51:58;;;;;;;25.80;4.88;;;;;;;11.03;74.11;101704.31;5019498;28;20075;-70
2023/01/05 03:54:23;;;;;;;26.70;5.50;;;;;;;11.04;74.33;101697.66;5030990;28;20477;-69
2023/01/05 03:56:48;;;;;;;26.95;5.10;;;;;;;11.05;74.22;101697.44;5028977;28;20131;-70
2023/01/05 03:59:14;;;;;;;23.75;4.55;;;;;;;11.05;74.47;101705.78;5030902;28;20108;-70
2023/01/05 04:01:39;;;;;;;33.42;5.50;;;;;;;11.04;74.19;101695.75;5019197;28;20117;-69
2023/01/05 04:04:04;;;;;;;27.75;5.28;;;;;;;11.06;74.73;101703.84;5011975;28;20036;-69
2023/01/05 04:06:30;;;;;;;27.58;4.93;;;;;;;11.05;74.44;101694.66;5011147;28;20030;-69
2023/01/05 04:08:55;;;;;;;27.08;5.47;;;;;;;11.09;74.40;101699.75;5011914;28;20018;-70
2023/01/05 04:11:22;;;;;;;26.35;6.57;;;;;;;11.09;74.62;101696.97;5025271;28;20048;-69
2023/01/05 04:13:48;;;;;;;27.40;5.03;;;;;;;11.10;74.27;101701.44;5028691;28;20026;-69
2023/01/05 04:16:14;;;;;;;27.17;4.68;;;;;;;11.11;74.39;101692.03;5017944;28;20099;-70
2023/01/05 04:18:39;;;;;;;25.70;5.15;;;;;;;11.10;74.38;101695.88;5011910;28;20057;-70
2023/01/05 04:21:05;;;;;;;25.25;4.60;;;;;;;11.08;74.40;101704.44;5010925;28;20064;-70
2023/01/05 04:23:31;;;;;;;30.23;5.95;;;;;;;11.11;74.77;101703.13;5011698;28;20048;-70
2023/01/05 04:25:56;;;;;;;24.95;5.10;;;;;;;11.13;74.33;101712.09;5026398;28;20044;-70
2023/01/05 04:28:21;;;;;;;26.70;5.10;;;;;;;11.13;74.34;101700.97;5030790;28;20434;-70
2023/01/05 04:30:52;;;;;;;27.98;5.70;;;;;;;11.13;74.50;101710.16;5027906;28;20045;-69
2023/01/05 04:33:18;;;;;;;30.65;4.93;;;;;;;11.14;74.62;101706.28;5010662;28;20033;-69
2023/01/05 04:35:44;;;;;;;24.30;4.78;;;;;;;11.14;74.58;101702.66;5011840;28;20026;-69
2023/01/05 04:38:09;;;;;;;27.83;5.40;;;;;;;11.13;74.65;101698.19;5011612;28;20033;-70
2023/01/05 04:40:35;;;;;;;33.85;6.65;;;;;;;11.13;74.55;101706.53;5023200;28;20029;-70
2023/01/05 04:43:00;;;;;;;33.03;5.63;;;;;;;11.14;74.68;101702.66;5031184;28;20041;-70
2023/01/05 04:45:25;;;;;;;30.23;5.78;;;;;;;11.13;75.03;101700.97;5026297;28;20072;-70
2023/01/05 04:47:51;;;;;;;37.03;5.60;;;;;;;11.13;74.79;101706.53;5027268;28;20033;-69
2023/01/05 04:50:17;;;;;;;29.75;5.95;;;;;;;11.12;74.72;101699.25;5024261;28;20049;-69
2023/01/05 04:52:42;;;;;;;41.58;6.78;;;;;;;11.11;74.50;101697.56;5025044;28;20086;-69
2023/01/05 04:55:08;;;;;;;26.88;5.40;;;;;;;11.13;74.71;101689.88;5030605;28;20465;-69
2023/01/05 04:57:33;;;;;;;26.38;5.20;;;;;;;11.12;74.69;101704.81;5031003;28;20022;-69
2023/01/05 04:59:59;;;;;;;32.50;5.60;;;;;;;11.13;74.58;101701.81;5029815;28;20025;-69
2023/01/05 05:02:25;;;;;;;27.60;5.50;;;;;;;11.12;74.83;101714.03;5026992;28;20025;-69
2023/01/05 05:04:50;;;;;;;25.23;5.00;;;;;;;11.11;74.69;101711.47;5013301;28;20034;-69
2023/01/05 05:07:15;;;;;;;30.15;5.72;;;;;;;11.05;74.51;101711.34;5028210;28;20041;-69
2023/01/05 05:09:41;;;;;;;30.25;5.78;;;;;;;11.03;74.60;101713.50;5010705;28;20084;-69
2023/01/05 05:12:06;;;;;;;28.48;5.25;;;;;;;11.05;74.87;101716.91;5011511;28;20038;-69
2023/01/05 05:14:31;;;;;;;35.28;5.47;;;;;;;11.03;74.99;101713.50;5011406;28;20540;-68
2023/01/05 05:16:57;;;;;;;30.30;5.70;;;;;;;10.99;74.93;101717.81;5011931;28;20365;-69
2023/01/05 05:19:22;;;;;;;27.85;5.53;;;;;;;11.04;74.76;101723.53;5028897;28;20072;-69
2023/01/05 05:21:47;;;;;;;24.85;5.35;;;;;;;11.05;74.37;101727.16;5030581;28;20033;-70
2023/01/05 05:24:13;;;;;;;25.17;5.25;;;;;;;11.03;74.85;101735.72;5023424;28;20034;-69
2023/01/05 05:26:38;;;;;;;27.60;5.22;;;;;;;11.03;74.90;101735.72;5015490;28;20033;-69
2023/01/05 05:29:04;;;;;;;28.50;6.05;;;;;;;11.05;75.04;101730.78;5030874;28;20056;-69
2023/01/05 05:31:29;;;;;;;37.58;6.32;;;;;;;11.03;74.88;101744.06;5031967;28;20037;-68
2023/01/05 05:33:54;;;;;;;28.60;5.40;;;;;;;11.10;74.83;101741.19;5034923;28;20033;-69
2023/01/05 05:36:19;;;;;;;30.33;4.97;;;;;;;11.08;74.74;101743.34;5033131;28;20034;-69
2023/01/05 05:38:45;;;;;;;31.23;5.38;;;;;;;11.06;75.03;101737.19;5034198;28;20032;-69
2023/01/05 05:41:10;;;;;;;28.92;4.95;;;;;;;11.04;75.11;101737.44;5028031;28;20033;-69
2023/01/05 05:43:35;;;;;;;29.77;5.30;;;;;;;11.07;75.26;101748.06;5031593;28;20762;-69
2023/01/05 05:46:01;;;;;;;36.20;6.05;;;;;;;11.07;75.24;101744.44;5028466;28;20116;-68
2023/01/05 05:48:26;;;;;;;24.52;5.05;;;;;;;11.09;75.13;101749.78;5025743;28;20552;-67
2023/01/05 05:50:52;;;;;;;34.05;6.03;;;;;;;11.09;75.00;101760.88;5032250;28;20536;-67
2023/01/05 05:53:17;;;;;;;31.75;5.38;;;;;;;11.08;74.72;101760.00;5034384;28;20045;-67
2023/01/05 05:55:46;;;;;;;27.95;5.45;;;;;;;11.09;74.80;101752.53;5033595;28;20049;-67
2023/01/05 05:58:12;;;;;;;37.55;5.72;;;;;;;11.10;74.75;101755.06;5028357;28;20045;-67
2023/01/05 06:00:37;;;;;;;29.02;5.60;;;;;;;11.14;74.97;101758.25;5032319;28;20033;-67
2023/01/05 06:03:02;;;;;;;32.88;5.80;;;;;;;11.11;74.96;101773.44;5029068;28;20091;-67
2023/01/05 06:05:28;;;;;;;30.27;5.75;;;;;;;11.09;74.47;101772.00;5028529;28;20297;-68
2023/01/05 06:07:53;;;;;;;30.63;6.03;;;;;;;11.06;75.10;101785.25;5029527;28;20029;-68
2023/01/05 06:10:18;;;;;;;38.75;6.25;;;;;;;11.05;74.94;101780.78;5019862;28;20036;-69
2023/01/05 06:12:44;;;;;;;29.13;5.75;;;;;;;11.04;74.83;101781.00;5013431;28;20026;-68
2023/01/05 06:15:09;;;;;;;34.50;6.32;;;;;;;11.07;75.23;101775.84;5026725;28;20473;-69
2023/01/05 06:17:35;;;;;;;32.78;6.13;;;;;;;11.09;74.91;101777.56;5032977;28;20074;-69
2023/01/05 06:20:00;;;;;;;34.58;6.07;;;;;;;11.10;74.86;101785.63;5032578;28;20044;-69
2023/01/05 06:22:25;;;;;;;32.60;6.03;;;;;;;11.06;75.04;101790.81;5032990;28;20112;-68
2023/01/05 06:24:51;;;;;;;34.13;6.45;;;;;;;11.10;75.04;101799.53;5016488;28;20056;-69
2023/01/05 06:27:16;;;;;;;36.53;6.22;;;;;;;11.11;75.19;101801.22;5028639;28;20029;-69
2023/01/05 06:29:41;;;;;;;31.40;5.28;;;;;;;11.13;75.36;101810.19;5021892;28;20037;-69
2023/01/05 06:32:06;;;;;;;32.75;5.68;;;;;;;11.15;74.98;101801.59;5012424;28;20026;-68
2023/01/05 06:34:32;;;;;;;39.50;6.10;;;;;;;11.13;75.29;101806.56;5024144;28;20550;-69
2023/01/05 06:36:57;;;;;;;28.85;6.03;;;;;;;11.13;75.20;101803.78;5023980;28;20029;-68
2023/01/05 06:39:23;;;;;;;36.60;6.05;;;;;;;11.11;75.71;101806.78;5026322;28;20033;-70
2023/01/05 06:41:48;;;;;;;35.15;5.75;;;;;;;11.09;75.79;101808.97;5030438;28;20397;-68
2023/01/05 06:44:13;;;;;;;30.67;6.05;;;;;;;11.08;75.47;101812.78;5030407;28;20041;-68
2023/01/05 06:46:39;;;;;;;34.28;6.05;;;;;;;11.05;75.74;101811.34;5025135;28;20025;-69
2023/01/05 06:49:05;;;;;;;38.83;6.85;;;;;;;11.06;76.16;101829.72;5016967;28;20033;-70
2023/01/05 06:51:30;;;;;;;35.38;6.68;;;;;;;11.08;76.08;101832.25;5019465;28;20041;-69
2023/01/05 06:53:55;;;;;;;41.10;6.88;;;;;;;11.07;75.86;101828.63;5027934;28;20030;-70
2023/01/05 06:56:21;;;;;;;37.40;6.88;;;;;;;11.06;75.58;101831.66;5031099;28;20029;-70
2023/01/05 06:58:46;;;;;;;33.10;5.82;;;;;;;10.98;75.84;101846.69;5026454;28;20537;-70
2023/01/05 07:01:11;;;;;;;36.40;6.65;;;;;;;10.99;76.06;101842.81;5025796;28;20966;-69
2023/01/05 07:03:36;;;;;;;43.00;6.90;;;;;;;10.94;76.05;101841.84;5027420;28;20493;-69
2023/01/05 07:06:03;;;;;;;35.35;5.82;;;;;;;10.98;75.99;101838.38;5022799;28;20029;-73
2023/01/05 07:08:28;;;;;;;35.10;7.35;;;;;;;10.96;75.97;101843.28;5022796;28;20485;-68
2023/01/05 07:10:54;;;;;;;42.17;6.90;;;;;;;10.97;76.20;101833.91;5021508;28;20068;-71
2023/01/05 07:13:19;;;;;;;33.90;6.10;;;;;;;10.99;76.03;101842.81;5009333;28;20030;-65
2023/01/05 07:15:44;;;;;;;32.08;6.22;;;;;;;11.03;76.19;101843.22;5020848;28;20465;-69
2023/01/05 07:18:10;;;;;;;42.00;7.60;;;;;;;11.03;75.88;101843.22;5019384;28;20033;-68
2023/01/05 07:20:37;;;;;;;41.05;7.22;;;;;;;11.04;76.58;101842.13;5023568;28;20389;-67
2023/01/05 07:23:02;;;;;;;39.92;7.55;;;;;;;11.02;76.43;101842.38;5018765;28;20060;-68
2023/01/05 07:25:30;;;;;;;34.33;6.32;;;;;;;11.04;76.04;101850.47;5023254;28;20384;-67
2023/01/05 07:27:56;;;;;;;31.85;6.50;;;;;;;11.01;76.28;101843.47;5025344;28;20032;-67
2023/01/05 07:30:21;;;;;;;37.08;6.70;;;;;;;11.04;76.07;101854.13;5025696;28;20030;-67
2023/01/05 07:32:47;;;;;;;39.03;6.75;;;;;;;11.03;76.26;101857.09;5025604;28;20029;-66
2023/01/05 07:35:12;;;;;;;40.20;7.63;;;;;;;11.03;76.18;101862.66;5019925;28;20562;-66
2023/01/05 07:37:37;;;;;;;33.55;6.43;;;;;;;11.03;76.17;101857.94;5027282;28;20385;-66
2023/01/05 07:40:03;;;;;;;32.97;6.63;;;;;;;11.04;76.23;101864.34;5011375;28;20040;-67
2023/01/05 07:42:29;;;;;;;36.28;6.57;;;;;;;11.05;76.10;101872.47;5023050;28;20041;-68
2023/01/05 07:44:54;;;;;;;34.67;6.45;;;;;;;11.04;76.09;101870.78;5024691;28;20037;-68
2023/01/05 07:47:20;;;;;;;39.40;7.07;;;;;;;11.06;76.42;101867.75;5022813;28;20065;-66
2023/01/05 07:49:45;;;;;;;33.38;6.03;;;;;;;11.08;76.33;101879.47;5030392;28;20035;-66
2023/01/05 07:52:10;;;;;;;35.17;6.65;;;;;;;11.06;75.90;101871.38;5030849;28;20056;-67
2023/01/05 07:54:36;;;;;;;40.45;7.28;;;;;;;11.08;76.19;101873.91;5028554;28;20075;-67
2023/01/05 07:57:01;;;;;;;34.47;6.57;;;;;;;11.06;75.74;101874.16;5030475;28;20468;-66
2023/01/05 07:59:26;;;;;;;42.30;6.68;;;;;;;11.05;75.63;101877.19;5025851;28;20026;-66
2023/01/05 08:01:51;;;;;;;40.47;6.85;;;;;;;11.01;76.47;101884.28;5027882;28;20139;-67
2023/01/05 08:04:17;;;;;;;35.03;6.95;;;;;;;11.03;76.02;101879.34;5024060;28;20079;-68
2023/01/05 08:06:42;;;;;;;39.05;7.18;;;;;;;11.03;76.23;101887.66;5027503;28;20061;-66
2023/01/05 08:11:51;;;;;;;38.28;6.57;;;;;;;10.99;75.81;101892.00;5029058;28;20040;-67
2023/01/05 08:14:16;;;;;;;37.05;6.55;;;;;;;11.00;76.12;101894.56;5030808;28;20033;-67
2023/01/05 08:16:42;;;;;;;39.83;7.35;;;;;;;11.02;76.01;101895.16;5029924;28;20041;-66
2023/01/05 08:19:09;;;;;;;40.97;6.47;;;;;;;11.01;75.86;101899.03;5029850;28;20033;-69
2023/01/05 08:21:34;;;;;;;33.60;6.22;;;;;;;11.05;76.11;101899.41;5029096;28;20029;-67
2023/01/05 08:23:59;;;;;;;41.00;6.55;;;;;;;10.99;75.80;101898.38;5030977;28;20131;-67
2023/01/05 08:26:28;;;;;;;33.92;6.90;;;;;;;10.96;75.81;101911.88;5028867;28;20112;-66
2023/01/05 08:28:53;;;;;;;41.80;7.00;;;;;;;10.99;75.94;101917.00;5030462;28;20492;-65
2023/01/05 08:31:29;;;;;;;44.33;8.70;;;;;;;10.97;76.26;101917.22;5028792;28;20033;-66
2023/01/05 08:33:58;;;;;;;36.88;6.35;;;;;;;11.01;76.28;101912.06;5026932;28;20029;-66
2023/01/05 08:36:24;;;;;;;29.02;5.80;;;;;;;11.02;76.08;101922.94;5029871;28;20048;-67
2023/01/05 08:38:54;;;;;;;42.67;7.35;;;;;;;11.04;76.10;101917.13;5024295;28;20235;-67
2023/01/05 08:41:27;;;;;;;33.67;6.28;;;;;;;11.05;75.76;101922.50;5023459;28;20480;-66
2023/01/05 08:43:54;;;;;;;38.08;7.85;;;;;;;11.07;75.46;101930.56;5029712;28;20036;-67
2023/01/05 08:46:22;;;;;;;32.53;6.68;;;;;;;11.06;75.60;101934.44;5030485;28;20393;-67
2023/01/05 08:48:53;;;;;;;37.40;6.70;;;;;;;11.07;75.51;101941.69;5028840;28;20028;-69
2023/01/05 08:51:19;;;;;;;37.45;7.53;;;;;;;11.09;75.62;101944.25;5028794;28;20400;-69
2023/01/05 08:53:45;;;;;;;36.35;6.45;;;;;;;11.06;75.44;101949.19;5030494;28;20029;-69
2023/01/05 08:56:19;;;;;;;32.60;6.63;;;;;;;11.09;75.66;101947.03;5016891;28;20034;-69
2023/01/05 08:58:45;;;;;;;33.92;6.05;;;;;;;11.11;75.49;101947.63;5032431;28;20029;-69
2023/01/05 09:01:20;;;;;;;39.03;7.00;;;;;;;11.06;75.76;101949.19;5034742;28;20033;-69
2023/01/05 09:03:53;;;;;;;39.13;6.70;;;;;;;11.09;75.93;101944.25;5034740;28;20834;-69
2023/01/05 09:06:21;;;;;;;35.47;6.23;;;;;;;11.09;75.82;101950.66;5030889;28;20056;-69
2023/01/05 09:08:47;;;;;;;41.38;7.53;;;;;;;11.10;75.82;101954.28;5030724;28;20025;-69
2023/01/05 09:11:17;;;;;;;39.42;7.45;;;;;;;11.08;75.64;101960.06;5035342;28;20507;-69
2023/01/05 09:13:52;;;;;;;40.75;6.43;;;;;;;11.12;75.88;101961.31;5034708;28;20040;-69
2023/01/05 09:16:21;;;;;;;34.88;6.38;;;;;;;11.14;75.71;101963.88;5034440;28;20025;-69
2023/01/05 09:18:47;;;;;;;35.50;6.70;;;;;;;11.15;75.76;101957.22;5036173;28;20138;-69
2023/01/05 09:21:12;;;;;;;40.17;7.68;;;;;;;11.14;75.81;101959.16;5036304;28;20147;-69
2023/01/05 09:23:38;;;;;;;32.65;6.78;;;;;;;11.15;75.92;101969.19;5035201;28;20555;-69
2023/01/05 09:26:05;;;;;;;38.90;6.30;;;;;;;11.19;75.83;101966.78;5037456;28;20040;-68
2023/01/05 09:28:31;;;;;;;34.08;6.60;;;;;;;11.20;75.60;101968.47;5035894;28;20057;-69
2023/01/05 09:30:57;;;;;;;38.45;6.57;;;;;;;11.20;75.51;101974.91;5036297;28;20095;-69
2023/01/05 09:33:23;;;;;;;36.33;6.88;;;;;;;11.21;75.86;101982.16;5028146;28;20461;-69
2023/01/05 09:35:55;;;;;;;37.83;6.93;;;;;;;11.24;75.83;101986.44;5016314;28;20028;-69
2023/01/05 09:38:22;;;;;;;41.28;6.82;;;;;;;11.25;75.75;101994.53;5017367;28;20049;-69
2023/01/05 09:40:49;;;;;;;42.42;7.13;;;;;;;11.26;75.49;101984.25;5017112;28;20026;-68
2023/01/05 09:43:22;;;;;;;41.70;7.70;;;;;;;11.25;75.85;101993.69;5016538;28;20423;-69
2023/01/05 09:45:49;;;;;;;42.10;6.60;;;;;;;11.22;75.67;101994.13;5029408;28;20065;-69
2023/01/05 09:48:16;;;;;;;34.90;6.43;;;;;;;11.24;75.92;101994.75;5032124;28;20040;-68
2023/01/05 09:50:44;;;;;;;41.92;6.05;;;;;;;11.20;75.85;101999.94;5033301;28;20060;-70
2023/01/05 09:53:12;;;;;;;38.60;7.55;;;;;;;11.21;75.89;102003.56;5033739;28;20095;-69
2023/01/05 09:55:42;;;;;;;37.90;7.07;;;;;;;11.21;75.80;102009.13;5033030;28;20028;-69
2023/01/05 09:58:16;;;;;;;39.17;7.28;;;;;;;11.22;75.51;102008.03;5029662;28;20029;-69
2023/01/05 10:01:00;;;;;;;39.97;7.28;;;;;;;11.23;75.82;101998.59;5029914;28;20036;-69
2023/01/05 10:03:26;;;;;;;45.67;7.47;;;;;;;11.19;75.52;102000.97;5032062;28;20465;-67
2023/01/05 10:05:52;;;;;;;36.67;6.40;;;;;;;11.21;76.03;102001.63;5035517;28;20033;-68
2023/01/05 10:08:27;;;;;;;37.88;7.40;;;;;;;11.25;76.32;102015.91;5035595;28;20037;-68
2023/01/05 10:13:57;;;;;;;40.55;7.15;;;;;;;11.20;75.96;102010.16;5033015;28;20136;-68
2023/01/05 10:16:22;;;;;;;33.80;6.70;;;;;;;11.20;75.77;102012.94;5027672;28;20028;-68
2023/01/05 10:18:49;;;;;;;46.20;7.35;;;;;;;11.22;76.09;102011.66;5031233;28;20112;-68
2023/01/05 10:21:49;;;;;;;36.10;6.63;;;;;;;11.22;75.86;102013.59;5033233;28;20032;-68
2023/01/05 10:24:34;;;;;;;41.45;6.95;;;;;;;11.24;75.80;102017.84;5032144;28;20053;-68
2023/01/05 10:27:10;;;;;;;40.03;8.10;;;;;;;11.20;76.12;102021.28;5029112;28;20099;-69
2023/01/05 10:29:47;;;;;;;41.10;6.95;;;;;;;11.24;76.32;102026.19;5029345;28;20124;-69
2023/01/05 10:32:19;;;;;;;36.13;6.25;;;;;;;11.26;76.17;102025.94;5019191;28;20140;-69
2023/01/05 10:34:55;;;;;;;42.33;7.40;;;;;;;11.29;76.42;102026.34;5028884;28;20040;-69
2023/01/05 10:37:46;;;;;;;36.80;6.80;;;;;;;11.33;76.22;102029.50;5024612;28;20766;-68
2023/01/05 10:40:34;;;;;;;38.67;7.07;;;;;;;11.36;76.03;102020.72;5030186;28;20032;-67
2023/01/05 10:43:15;;;;;;;48.97;7.97;;;;;;;11.34;75.57;102028.41;5025222;28;20128;-67
2023/01/05 10:45:43;;;;;;;38.40;7.25;;;;;;;11.37;75.68;102029.91;5025476;28;20037;-66
2023/01/05 10:48:22;;;;;;;38.05;6.30;;;;;;;11.38;75.62;102032.44;5026197;28;20544;-66
2023/01/05 10:50:48;;;;;;;46.08;7.13;;;;;;;11.38;75.66;102032.44;5026208;28;20041;-68
2023/01/05 10:53:17;;;;;;;36.00;7.07;;;;;;;11.39;75.71;102028.56;5028411;28;20044;-67
2023/01/05 10:56:00;;;;;;;43.08;7.00;;;;;;;11.41;75.55;102031.13;5029437;28;20036;-66
2023/01/05 10:58:37;;;;;;;38.42;7.25;;;;;;;11.40;75.41;102035.84;5028460;28;20033;-67
2023/01/05 11:01:16;;;;;;;31.67;6.18;;;;;;;11.38;75.03;102039.94;5029241;28;20400;-66
2023/01/05 11:03:46;;;;;;;40.05;8.23;;;;;;;11.39;75.46;102036.91;5028491;28;20048;-65
2023/01/05 11:06:23;;;;;;;37.88;7.25;;;;;;;11.40;75.85;102035.84;5027763;28;20037;-65
2023/01/05 11:08:49;;;;;;;39.42;7.82;;;;;;;11.40;75.52;102040.56;5023552;28;20033;-67
2023/01/05 11:11:24;;;;;;;43.33;8.05;;;;;;;11.42;75.35;102032.84;5029222;28;20022;-66
2023/01/05 11:13:56;;;;;;;45.25;7.35;;;;;;;11.42;75.01;102041.16;5023262;28;20041;-66
2023/01/05 11:16:31;;;;;;;42.70;7.55;;;;;;;11.42;75.44;102038.41;5027415;28;20488;-66
2023/01/05 11:19:12;;;;;;;46.58;8.30;;;;;;;11.41;75.04;102043.09;5010252;28;20505;-68
2023/01/05 11:21:43;;;;;;;36.25;7.15;;;;;;;11.42;74.96;102035.59;5024717;28;20033;-67
2023/01/05 11:24:23;;;;;;;34.40;7.07;;;;;;;11.45;75.55;102038.78;5028882;28;20033;-68
2023/01/05 11:26:53;;;;;;;34.72;7.00;;;;;;;11.43;75.42;102035.38;5026272;28;20030;-67
2023/01/05 11:29:19;;;;;;;39.40;8.27;;;;;;;11.44;75.06;102036.25;5025302;28;20548;-67
2023/01/05 11:32:00;;;;;;;43.13;7.15;;;;;;;11.46;75.42;102034.91;5022043;28;20400;-67
2023/01/05 11:34:28;;;;;;;37.20;6.68;;;;;;;11.45;75.03;102032.38;5029444;28;20025;-67
2023/01/05 11:37:00;;;;;;;46.63;8.23;;;;;;;11.41;75.36;102032.00;5027745;28;20468;-70
2023/01/05 11:39:32;;;;;;;32.45;6.80;;;;;;;11.46;75.08;102023.78;5030752;28;20479;-68
2023/01/05 11:42:13;;;;;;;39.50;7.32;;;;;;;11.48;75.35;102024.44;5032044;28;20029;-67
2023/01/05 11:44:42;;;;;;;36.03;7.20;;;;;;;11.47;74.65;102027.41;5031656;28;20033;-67
2023/01/05 11:47:16;;;;;;;37.80;7.00;;;;;;;11.47;74.65;102027.41;5031735;28;20029;-67
2023/01/05 11:49:48;;;;;;;31.63;6.15;;;;;;;11.45;74.04;102015.69;5028952;28;20025;-67
2023/01/05 11:52:38;;;;;;;38.90;7.67;;;;;;;11.44;74.70;102019.56;5015173;28;20042;-68
2023/01/05 11:55:19;;;;;;;29.50;7.03;;;;;;;11.44;75.02;102014.84;5011743;28;20308;-68
2023/01/05 11:57:51;;;;;;;33.95;6.90;;;;;;;11.40;74.35;102008.06;5011065;28;20032;-68
2023/01/05 12:00:26;;;;;;;38.25;6.47;;;;;;;11.45;74.56;102010.13;5011183;28;20041;-67